Time;durP1;ratioP1;P1;durP2;ratioP2;P2;SDS_P1;SDS_P2;PMS_P1;PMS_P2;Temp;Humidity;BMP_temperature;BMP_pressure;BME280_temperature;BME280_humidity;BME280_pressure;Samples;Min_cycle;Max_cycle;Signal;HPM_P1;HPM_P2
2023/05/08 00:00:59;;;;;;;;;;;;;;;15.03;95.03;101999.97;5060111;28;19920;-58
2023/05/08 00:03:25;;;;;;;;;;;;;;;15.03;94.93;102002.63;5067757;28;20328;-58
2023/05/08 00:05:50;;;;;;;;;;;;;;;15.03;94.99;102005.31;5067227;28;19999;-58
2023/05/08 00:08:15;;;;;;;;;;;;;;;15.03;94.84;102003.47;5059716;28;19919;-58
2023/05/08 00:10:40;;;;;;;;;;;;;;;15.04;94.89;102004.34;5064382;28;19920;-58
2023/05/08 00:13:05;;;;;;;;;;;;;;;15.05;94.49;102003.34;5061345;28;20393;-58
2023/05/08 00:15:31;;;;;;;;;;;;;;;15.03;94.87;102000.78;5058916;28;19999;-58
2023/05/08 00:17:56;;;;;;;;;;;;;;;15.01;94.83;102007.31;5060658;28;19909;-58
2023/05/08 00:20:21;;;;;;;;;;;;;;;15.00;94.79;102002.97;5056678;28;19942;-58
2023/05/08 00:22:46;;;;;;;;;;;;;;;14.99;94.61;101999.47;5067265;28;19928;-58
2023/05/08 00:25:11;;;;;;;;;;;;;;;14.99;94.74;102001.31;5061986;28;20527;-58
2023/05/08 00:27:36;;;;;;;;;;;;;;;15.00;94.62;101997.63;5058823;28;19921;-57
2023/05/08 00:30:02;;;;;;;;;;;;;;;15.00;94.57;102002.97;5066886;28;19999;-59
2023/05/08 00:32:27;;;;;;;;;;;;;;;14.98;94.35;101996.97;5070976;28;20370;-58
2023/05/08 00:34:52;;;;;;;;;;;;;;;14.98;94.62;102002.31;5058516;28;20030;-58
2023/05/08 00:37:18;;;;;;;;;;;;;;;14.96;94.60;101999.81;5059779;28;20448;-59
2023/05/08 00:39:43;;;;;;;;;;;;;;;14.92;95.01;102000.34;5070129;28;19920;-59
2023/05/08 00:42:08;;;;;;;;;;;;;;;14.82;94.80;101995.19;5062395;28;19956;-60
2023/05/08 00:44:33;;;;;;;;;;;;;;;14.78;94.86;101993.84;5068078;28;19925;-59
2023/05/08 00:46:58;;;;;;;;;;;;;;;14.74;95.08;101995.19;5059980;28;19924;-59
2023/05/08 00:49:24;;;;;;;;;;;;;;;14.70;95.37;101988.50;5062982;28;19916;-60
2023/05/08 00:51:51;;;;;;;;;;;;;;;14.65;95.30;101994.34;5066880;28;20362;-60
2023/05/08 00:54:16;;;;;;;;;;;;;;;14.62;95.16;101992.03;5070815;28;19950;-60
2023/05/08 00:56:42;;;;;;;;;;;;;;;14.61;94.98;101989.53;5070265;28;19954;-60
2023/05/08 00:59:08;;;;;;;;;;;;;;;14.62;95.21;101993.88;5067167;28;19917;-59
2023/05/08 01:01:35;;;;;;;;;;;;;;;14.63;95.21;102004.38;5059036;28;20438;-59
2023/05/08 01:04:01;;;;;;;;;;;;;;;14.66;95.31;101995.19;5065443;28;20038;-59
2023/05/08 01:06:26;;;;;;;;;;;;;;;14.66;95.14;101995.19;5069735;28;19991;-60
2023/05/08 01:08:51;;;;;;;;;;;;;;;14.67;95.02;101989.69;5058097;28;19920;-59
2023/05/08 01:11:20;;;;;;;;;;;;;;;14.69;94.91;101986.84;5070971;28;20313;-59
2023/05/08 01:14:04;;;;;;;;;;;;;;;14.70;94.73;101986.66;5069246;28;19977;-59
2023/05/08 01:16:37;;;;;;;;;;;;;;;14.72;94.85;101986.50;5060141;28;19913;-60
2023/05/08 01:19:13;;;;;;;;;;;;;;;14.71;95.03;101982.16;5063976;28;19961;-59
2023/05/08 01:21:38;;;;;;;;;;;;;;;14.72;94.72;101989.16;5067788;28;19998;-60
2023/05/08 01:24:09;;;;;;;;;;;;;;;14.72;94.83;101991.84;5070128;28;20366;-60
2023/05/08 01:26:46;;;;;;;;;;;;;;;14.71;94.74;101987.50;5059882;28;20062;-60
2023/05/08 01:29:11;;;;;;;;;;;;;;;14.72;94.97;101986.50;5067158;28;20402;-59
2023/05/08 01:31:53;;;;;;;;;;;;;;;14.73;94.85;101986.31;5063367;28;19959;-60
2023/05/08 01:34:29;;;;;;;;;;;;;;;14.74;94.72;101992.50;5058547;28;20004;-60
2023/05/08 01:37:01;;;;;;;;;;;;;;;14.74;95.03;101997.84;5069157;28;19916;-59
2023/05/08 01:39:45;;;;;;;;;;;;;;;14.73;94.92;101993.50;5064144;28;20003;-59
2023/05/08 01:42:23;;;;;;;;;;;;;;;14.71;94.76;101982.97;5059030;28;19932;-59
2023/05/08 01:44:52;;;;;;;;;;;;;;;14.66;95.25;101979.16;5064577;28;19920;-60
2023/05/08 01:47:19;;;;;;;;;;;;;;;14.70;94.77;101986.66;5060597;28;20385;-60
2023/05/08 01:49:46;;;;;;;;;;;;;;;14.71;94.80;101995.53;5065353;28;19923;-60
2023/05/08 01:52:12;;;;;;;;;;;;;;;14.72;94.99;101986.50;5069426;28;19924;-59
2023/05/08 01:54:43;;;;;;;;;;;;;;;14.72;95.07;101992.66;5059980;28;19920;-59
2023/05/08 01:57:10;;;;;;;;;;;;;;;14.71;94.76;101991.00;5059196;28;19923;-59
2023/05/08 01:59:35;;;;;;;;;;;;;;;14.71;94.96;101992.84;5065564;28;19964;-59
2023/05/08 02:02:01;;;;;;;;;;;;;;;14.72;95.07;101997.19;5068800;28;19962;-59
2023/05/08 02:04:27;;;;;;;;;;;;;;;14.71;95.07;101998.19;5064533;28;19971;-60
2023/05/08 02:06:53;;;;;;;;;;;;;;;14.69;94.91;101998.34;5060674;28;19928;-60
2023/05/08 02:09:19;;;;;;;;;;;;;;;14.68;95.06;101993.19;5068905;28;19974;-60
2023/05/08 02:11:45;;;;;;;;;;;;;;;14.67;95.12;101989.69;5064048;28;19932;-59
2023/05/08 02:14:11;;;;;;;;;;;;;;;14.66;94.89;101995.19;5068671;28;19938;-59
2023/05/08 02:16:36;;;;;;;;;;;;;;;14.63;95.06;101999.03;5059201;28;20309;-59
2023/05/08 02:19:03;;;;;;;;;;;;;;;14.63;95.24;101995.53;5064757;28;19923;-60
2023/05/08 02:21:29;;;;;;;;;;;;;;;14.64;95.18;101997.19;5064540;28;20387;-60
2023/05/08 02:23:55;;;;;;;;;;;;;;;14.65;95.21;101993.53;5069973;28;20352;-59
2023/05/08 02:26:21;;;;;;;;;;;;;;;14.64;95.61;101998.03;5058893;28;19916;-59
2023/05/08 02:28:47;;;;;;;;;;;;;;;14.60;95.90;101993.19;5067421;28;19923;-59
2023/05/08 02:31:13;;;;;;;;;;;;;;;14.53;96.00;101999.22;5062230;28;20006;-58
2023/05/08 02:33:42;;;;;;;;;;;;;;;14.47;95.77;101993.72;5056249;28;20305;-60
2023/05/08 02:36:09;;;;;;;;;;;;;;;14.42;96.16;101996.00;5059147;28;19966;-59
2023/05/08 02:38:36;;;;;;;;;;;;;;;14.34;95.78;102009.38;5066757;28;19935;-59
2023/05/08 02:41:02;;;;;;;;;;;;;;;14.27;95.52;102011.88;5068250;28;19925;-59
2023/05/08 02:43:27;;;;;;;;;;;;;;;14.25;95.46;102008.53;5063451;28;19998;-59
2023/05/08 02:46:11;;;;;;;;;;;;;;;14.27;95.51;102007.38;5068746;28;20390;-58
2023/05/08 02:48:56;;;;;;;;;;;;;;;14.30;95.61;102013.38;5059355;28;19930;-59
2023/05/08 02:51:27;;;;;;;;;;;;;;;14.32;95.90;102014.06;5063134;28;19924;-58
2023/05/08 02:54:05;;;;;;;;;;;;;;;14.30;96.13;102010.72;5069542;28;19916;-59
2023/05/08 02:56:35;;;;;;;;;;;;;;;14.26;95.86;102011.06;5068370;28;19919;-59
2023/05/08 02:59:11;;;;;;;;;;;;;;;14.26;95.93;102010.22;5069169;28;19919;-59
2023/05/08 03:01:41;;;;;;;;;;;;;;;14.25;95.72;102009.38;5055919;28;19925;-58
2023/05/08 03:04:11;;;;;;;;;;;;;;;14.26;95.58;102010.22;5056282;28;19916;-60
2023/05/08 03:06:41;;;;;;;;;;;;;;;14.25;95.94;102005.88;5061941;28;19923;-60
2023/05/08 03:09:09;;;;;;;;;;;;;;;14.24;95.94;102009.56;5063446;28;20389;-60
2023/05/08 03:11:40;;;;;;;;;;;;;;;14.25;95.74;102012.06;5068604;28;20551;-58
2023/05/08 03:14:08;;;;;;;;;;;;;;;14.26;95.78;102004.88;5065346;28;19912;-58
2023/05/08 03:16:35;;;;;;;;;;;;;;;14.29;95.96;102007.22;5065499;28;19916;-59
2023/05/08 03:19:04;;;;;;;;;;;;;;;14.30;95.56;102006.22;5058231;28;20007;-57
2023/05/08 03:21:30;;;;;;;;;;;;;;;14.32;95.78;102006.03;5063627;28;19924;-60
2023/05/08 03:23:56;;;;;;;;;;;;;;;14.30;95.58;102002.69;5060837;28;19917;-59
2023/05/08 03:26:22;;;;;;;;;;;;;;;14.31;95.96;101999.84;5059582;28;19999;-59
2023/05/08 03:28:48;;;;;;;;;;;;;;;14.32;95.45;102006.88;5058606;28;19923;-59
2023/05/08 03:31:17;;;;;;;;;;;;;;;14.30;95.80;101998.19;5058407;28;20421;-59
2023/05/08 03:33:42;;;;;;;;;;;;;;;14.29;96.02;101995.69;5064913;28;19995;-60
2023/05/08 03:36:08;;;;;;;;;;;;;;;14.26;95.88;101995.03;5061341;28;20027;-59
2023/05/08 03:38:33;;;;;;;;;;;;;;;14.25;95.93;101996.03;5058810;28;19920;-58
2023/05/08 03:40:59;;;;;;;;;;;;;;;14.25;95.99;101992.53;5060029;28;20445;-59
2023/05/08 03:43:24;;;;;;;;;;;;;;;14.22;96.10;101993.69;5067177;28;20486;-59
2023/05/08 03:45:50;;;;;;;;;;;;;;;14.20;95.81;101998.38;5068175;28;19937;-58
2023/05/08 03:48:15;;;;;;;;;;;;;;;14.19;95.58;101996.69;5060649;28;19995;-59
2023/05/08 03:50:40;;;;;;;;;;;;;;;14.18;95.82;101994.19;5067752;28;19912;-59
2023/05/08 03:53:05;;;;;;;;;;;;;;;14.14;95.65;101985.66;5063441;28;19913;-59
2023/05/08 03:55:31;;;;;;;;;;;;;;;14.14;95.80;101987.47;5062270;28;19920;-59
2023/05/08 03:57:56;;;;;;;;;;;;;;;14.13;95.60;101993.81;5063163;28;20617;-59
2023/05/08 04:00:40;;;;;;;;;;;;;;;14.09;95.93;101990.66;5058776;28;19920;-59
2023/05/08 04:03:12;;;;;;;;;;;;;;;14.05;95.86;101983.97;5064495;28;19934;-60
2023/05/08 04:05:45;;;;;;;;;;;;;;;14.02;95.62;101984.31;5066492;28;20383;-59
2023/05/08 04:08:15;;;;;;;;;;;;;;;13.99;95.61;101983.81;5065395;28;19921;-60
2023/05/08 04:10:57;;;;;;;;;;;;;;;13.95;95.70;101981.47;5061021;28;19924;-59
2023/05/08 04:13:25;;;;;;;;;;;;;;;13.93;95.49;101980.81;5059336;28;19920;-60
2023/05/08 04:15:53;;;;;;;;;;;;;;;13.94;95.79;101992.31;5058218;28;19912;-60
2023/05/08 04:18:23;;;;;;;;;;;;;;;13.94;95.56;101987.81;5065336;28;19913;-59
2023/05/08 04:20:49;;;;;;;;;;;;;;;13.93;95.78;101994.16;5059917;28;19951;-59
2023/05/08 04:23:17;;;;;;;;;;;;;;;13.89;95.65;101989.31;5066861;28;19924;-59
2023/05/08 04:25:43;;;;;;;;;;;;;;;13.76;96.09;101995.09;5060823;28;19921;-59
2023/05/08 04:28:09;;;;;;;;;;;;;;;13.62;95.73;101999.25;5066112;28;19958;-59
2023/05/08 04:30:34;;;;;;;;;;;;;;;13.52;95.72;102005.69;5065854;28;21747;-59
2023/05/08 04:33:01;;;;;;;;;;;;;;;13.48;95.83;102001.69;5068332;28;19926;-59
2023/05/08 04:35:26;;;;;;;;;;;;;;;13.49;96.23;102011.38;5065859;28;19999;-58
2023/05/08 04:37:52;;;;;;;;;;;;;;;13.45;96.39;102013.53;5065551;28;20378;-59
2023/05/08 04:40:17;;;;;;;;;;;;;;;13.39;96.63;102016.84;5059553;28;20275;-60
2023/05/08 04:42:45;;;;;;;;;;;;;;;13.39;96.55;102016.00;5063643;28;19921;-59
2023/05/08 04:45:11;;;;;;;;;;;;;;;13.42;97.22;102018.34;5061542;28;20456;-59
2023/05/08 04:47:36;;;;;;;;;;;;;;;13.45;97.51;102018.03;5067190;28;19913;-59
2023/05/08 04:50:01;;;;;;;;;;;;;;;13.49;97.86;102022.03;5061934;28;19927;-59
2023/05/08 04:52:26;;;;;;;;;;;;;;;13.53;97.68;102026.88;5065983;28;19928;-60
2023/05/08 04:54:51;;;;;;;;;;;;;;;13.57;97.92;102022.06;5065983;28;20650;-59
2023/05/08 04:57:17;;;;;;;;;;;;;;;13.64;97.99;102028.44;5065897;28;19920;-60
2023/05/08 04:59:42;;;;;;;;;;;;;;;13.68;98.42;102032.47;5058761;28;20408;-59
2023/05/08 05:02:07;;;;;;;;;;;;;;;13.73;98.72;102034.66;5064653;28;19981;-59
2023/05/08 05:04:34;;;;;;;;;;;;;;;13.77;99.20;102031.47;5066420;28;19920;-60
2023/05/08 05:06:59;;;;;;;;;;;;;;;13.82;99.33;102026.50;5062987;28;19924;-58
2023/05/08 05:09:24;;;;;;;;;;;;;;;13.86;99.34;102029.66;5064405;28;19913;-58
2023/05/08 05:11:50;;;;;;;;;;;;;;;13.86;100.00;102038.50;5054676;28;19971;-59
2023/05/08 05:14:15;;;;;;;;;;;;;;;13.85;100.00;102044.00;5064831;28;20413;-59
2023/05/08 05:16:40;;;;;;;;;;;;;;;13.79;100.00;102048.16;5061453;28;19923;-59
2023/05/08 05:19:05;;;;;;;;;;;;;;;13.75;100.00;102043.31;5057897;28;19967;-60
2023/05/08 05:21:31;;;;;;;;;;;;;;;13.70;100.00;102048.31;5058790;28;19916;-59
2023/05/08 05:23:56;;;;;;;;;;;;;;;13.70;99.83;102049.16;5064796;28;19963;-59
2023/05/08 05:26:22;;;;;;;;;;;;;;;13.73;99.82;102048.81;5057508;28;19923;-60
2023/05/08 05:28:47;;;;;;;;;;;;;;;13.79;100.00;102058.84;5056990;28;19913;-60
2023/05/08 05:31:12;;;;;;;;;;;;;;;13.82;100.00;102060.38;5058759;28;19921;-60
2023/05/08 05:33:38;;;;;;;;;;;;;;;13.82;100.00;102063.03;5062646;28;20370;-59
2023/05/08 05:36:03;;;;;;;;;;;;;;;13.81;100.00;102058.69;5059456;28;19924;-60
2023/05/08 05:38:28;;;;;;;;;;;;;;;13.82;100.00;102065.69;5064573;28;19928;-58
2023/05/08 05:40:53;;;;;;;;;;;;;;;13.86;100.00;102062.53;5065154;28;19928;-60
2023/05/08 05:43:19;;;;;;;;;;;;;;;13.92;100.00;102063.75;5059672;28;19927;-60
2023/05/08 05:45:44;;;;;;;;;;;;;;;13.98;100.00;102065.75;5063373;28;19928;-58
2023/05/08 05:48:09;;;;;;;;;;;;;;;14.01;100.00;102070.78;5064439;28;19966;-58
2023/05/08 05:50:36;;;;;;;;;;;;;;;14.05;100.00;102065.94;5062410;28;19932;-58
2023/05/08 05:53:01;;;;;;;;;;;;;;;14.09;100.00;102076.13;5063411;28;19916;-58
2023/05/08 05:55:27;;;;;;;;;;;;;;;14.13;100.00;102072.13;5063830;28;19936;-58
2023/05/08 05:57:52;;;;;;;;;;;;;;;14.16;100.00;102073.63;5066967;28;19920;-57
2023/05/08 06:00:17;;;;;;;;;;;;;;;14.19;100.00;102076.84;5061744;28;19924;-58
2023/05/08 06:02:43;;;;;;;;;;;;;;;14.21;100.00;102082.84;5068153;28;19959;-58
2023/05/08 06:05:08;;;;;;;;;;;;;;;14.23;100.00;102086.19;5060657;28;19914;-58
2023/05/08 06:07:34;;;;;;;;;;;;;;;14.24;100.00;102071.00;5065886;28;20286;-58
2023/05/08 06:09:59;;;;;;;;;;;;;;;14.27;100.00;102071.50;5065887;28;19969;-58
2023/05/08 06:12:25;;;;;;;;;;;;;;;14.29;100.00;102079.34;5066307;28;19917;-58
2023/05/08 06:14:50;;;;;;;;;;;;;;;14.33;100.00;102079.84;5062868;28;19939;-57
2023/05/08 06:17:16;;;;;;;;;;;;;;;14.37;100.00;102076.69;5062586;28;19917;-58
2023/05/08 06:19:41;;;;;;;;;;;;;;;14.44;100.00;102079.56;5063593;28;19926;-58
2023/05/08 06:22:06;;;;;;;;;;;;;;;14.49;100.00;102079.94;5065007;28;20297;-59
2023/05/08 06:24:32;;;;;;;;;;;;;;;14.53;100.00;102071.41;5067586;28;19920;-58
2023/05/08 06:26:57;;;;;;;;;;;;;;;14.57;100.00;102075.41;5068650;28;20065;-57
2023/05/08 06:29:22;;;;;;;;;;;;;;;14.61;100.00;102072.41;5068429;28;20326;-58
2023/05/08 06:31:47;;;;;;;;;;;;;;;14.61;100.00;102080.44;5068680;28;20000;-58
2023/05/08 06:34:12;;;;;;;;;;;;;;;14.60;100.00;102078.75;5069100;28;19916;-58
2023/05/08 06:36:37;;;;;;;;;;;;;;;14.57;100.00;102080.75;5066379;28;19967;-57
2023/05/08 06:39:04;;;;;;;;;;;;;;;14.54;100.00;102085.59;5069342;28;19961;-58
2023/05/08 06:41:29;;;;;;;;;;;;;;;14.50;100.00;102082.44;5068840;28;20282;-58
2023/05/08 06:43:54;;;;;;;;;;;;;;;14.50;100.00;102079.75;5068894;28;20553;-59
2023/05/08 06:46:20;;;;;;;;;;;;;;;14.55;100.00;102080.09;5060968;28;19912;-59
2023/05/08 06:48:45;;;;;;;;;;;;;;;14.62;100.00;102087.44;5059053;28;20004;-59
2023/05/08 06:51:10;;;;;;;;;;;;;;;14.68;100.00;102087.59;5058207;28;20399;-58
2023/05/08 06:53:36;;;;;;;;;;;;;;;14.71;100.00;102097.13;5065383;28;19923;-59
2023/05/08 06:56:01;;;;;;;;;;;;;;;14.69;100.00;102097.28;5069192;28;19912;-58
2023/05/08 06:58:26;;;;;;;;;;;;;;;14.66;100.00;102099.47;5066926;28;20372;-60
2023/05/08 07:00:51;;;;;;;;;;;;;;;14.63;100.00;102100.63;5060040;28;19916;-60
2023/05/08 07:03:16;;;;;;;;;;;;;;;14.57;100.00;102102.16;5065370;28;19925;-60
2023/05/08 07:05:42;;;;;;;;;;;;;;;14.55;100.00;102109.50;5068936;28;20471;-60
2023/05/08 07:08:07;;;;;;;;;;;;;;;14.54;100.00;102104.31;5068403;28;19913;-59
2023/05/08 07:10:33;;;;;;;;;;;;;;;14.54;100.00;102107.00;5058817;28;20297;-60
2023/05/08 07:12:58;;;;;;;;;;;;;;;14.53;100.00;102111.50;5056144;28;20321;-60
2023/05/08 07:15:23;;;;;;;;;;;;;;;14.52;100.00;102111.66;5065884;28;20315;-59
2023/05/08 07:17:48;;;;;;;;;;;;;;;14.48;100.00;102102.31;5055531;28;19917;-60
2023/05/08 07:20:13;;;;;;;;;;;;;;;14.45;100.00;102105.28;5061699;28;19964;-60
2023/05/08 07:22:39;;;;;;;;;;;;;;;14.44;100.00;102104.44;5066336;28;19920;-60
2023/05/08 07:25:04;;;;;;;;;;;;;;;14.45;100.00;102100.78;5067147;28;19952;-60
2023/05/08 07:27:29;;;;;;;;;;;;;;;14.46;100.00;102104.31;5067630;28;19919;-59
2023/05/08 07:29:56;;;;;;;;;;;;;;;14.48;100.00;102096.97;5068626;28;19913;-60
2023/05/08 07:32:21;;;;;;;;;;;;;;;14.51;100.00;102105.50;5067519;28;19912;-60
2023/05/08 07:34:46;;;;;;;;;;;;;;;14.55;100.00;102098.81;5068588;28;20063;-61
2023/05/08 07:37:12;;;;;;;;;;;;;;;14.61;100.00;102099.13;5053545;28;19944;-60
2023/05/08 07:39:37;;;;;;;;;;;;;;;14.70;100.00;102096.28;5061531;28;20298;-60
2023/05/08 07:42:02;;;;;;;;;;;;;;;14.82;100.00;102099.47;5059215;28;20301;-60
2023/05/08 07:44:30;;;;;;;;;;;;;;;14.85;100.00;102093.78;5061609;28;19920;-58
2023/05/08 07:46:55;;;;;;;;;;;;;;;14.94;100.00;102100.81;5063689;28;19913;-59
2023/05/08 07:49:20;;;;;;;;;;;;;;;15.03;100.00;102091.75;5064344;28;19913;-58
2023/05/08 07:51:45;;;;;;;;;;;;;;;15.13;100.00;102095.09;5060520;28;20635;-59
2023/05/08 07:54:10;;;;;;;;;;;;;;;15.21;100.00;102088.91;5068524;28;19916;-58
2023/05/08 07:56:36;;;;;;;;;;;;;;;15.32;100.00;102093.88;5059554;28;19916;-58
2023/05/08 07:59:01;;;;;;;;;;;;;;;15.45;100.00;102096.88;5063742;28;20047;-58
2023/05/08 08:01:26;;;;;;;;;;;;;;;15.55;100.00;102095.84;5065213;28;19965;-59
2023/05/08 08:03:53;;;;;;;;;;;;;;;15.65;100.00;102094.69;5064867;28;19921;-59
2023/05/08 08:06:18;;;;;;;;;;;;;;;15.72;100.00;102101.00;5067275;28;20320;-59
2023/05/08 08:08:43;;;;;;;;;;;;;;;15.83;100.00;102099.78;5061689;28;19912;-58
2023/05/08 08:11:08;;;;;;;;;;;;;;;15.92;100.00;102103.28;5055825;28;19941;-59
2023/05/08 08:13:33;;;;;;;;;;;;;;;15.97;100.00;102101.72;5059554;28;20573;-59
2023/05/08 08:15:59;;;;;;;;;;;;;;;16.00;100.00;102103.22;5072097;28;19921;-58
2023/05/08 08:18:24;;;;;;;;;;;;;;;16.01;100.00;102100.38;5054508;28;20007;-59
2023/05/08 08:20:49;;;;;;;;;;;;;;;16.06;100.00;102105.19;5060153;28;19931;-59
2023/05/08 08:23:14;;;;;;;;;;;;;;;16.21;100.00;102102.63;5061867;28;19970;-59
2023/05/08 08:25:40;;;;;;;;;;;;;;;16.34;100.00;102098.31;5059224;28;19923;-58
2023/05/08 08:28:07;;;;;;;;;;;;;;;16.46;100.00;102095.22;5058641;28;21257;-59
2023/05/08 08:30:32;;;;;;;;;;;;;;;16.53;100.00;102094.34;5061865;28;19931;-58
2023/05/08 08:33:00;;;;;;;;;;;;;;;16.60;100.00;102095.28;5059659;28;19931;-59
2023/05/08 08:35:28;;;;;;;;;;;;;;;16.60;100.00;102089.09;5068601;28;20006;-59
2023/05/08 08:37:53;;;;;;;;;;;;;;;16.63;100.00;102088.72;5067069;28;20459;-58
2023/05/08 08:40:18;;;;;;;;;;;;;;;16.71;100.00;102086.00;5069580;28;19920;-59
2023/05/08 08:42:43;;;;;;;;;;;;;;;16.82;100.00;102090.97;5059653;28;19970;-58
2023/05/08 08:45:09;;;;;;;;;;;;;;;16.89;100.00;102086.53;5068043;28;20015;-59
2023/05/08 08:47:40;;;;;;;;;;;;;;;17.08;100.00;102084.34;5068992;28;20042;-58
2023/05/08 08:50:06;;;;;;;;;;;;;;;17.15;100.00;102088.81;5069739;28;19913;-59
2023/05/08 08:52:39;;;;;;;;;;;;;;;17.21;100.00;102085.38;5065765;28;20370;-59
2023/05/08 08:55:06;;;;;;;;;;;;;;;17.32;100.00;102084.09;5060994;28;20189;-59
2023/05/08 08:57:33;;;;;;;;;;;;;;;17.36;99.08;102089.94;5067065;28;19955;-59
2023/05/08 08:59:58;;;;;;;;;;;;;;;17.36;97.86;102084.56;5070153;28;19913;-58
2023/05/08 09:02:24;;;;;;;;;;;;;;;17.49;97.64;102090.94;5069672;28;20023;-59
2023/05/08 09:04:50;;;;;;;;;;;;;;;17.59;97.75;102094.19;5069447;28;19925;-59
2023/05/08 09:07:16;;;;;;;;;;;;;;;17.67;97.14;102093.31;5070346;28;19912;-58
2023/05/08 09:09:43;;;;;;;;;;;;;;;17.72;96.43;102095.41;5070712;28;19959;-59
2023/05/08 09:12:08;;;;;;;;;;;;;;;17.69;95.18;102095.78;5068425;28;19916;-58
2023/05/08 09:14:33;;;;;;;;;;;;;;;17.66;94.33;102096.97;5065186;28;19966;-59
2023/05/08 09:16:58;;;;;;;;;;;;;;;17.54;93.31;102101.97;5060037;28;19920;-58
2023/05/08 09:19:25;;;;;;;;;;;;;;;17.46;92.81;102102.06;5069913;28;20019;-59
2023/05/08 09:21:50;;;;;;;;;;;;;;;17.32;92.65;102094.81;5070764;28;19916;-58
2023/05/08 09:24:15;;;;;;;;;;;;;;;17.25;92.96;102100.09;5069604;28;19924;-59
2023/05/08 09:26:41;;;;;;;;;;;;;;;17.22;93.41;102096.94;5062176;28;19920;-59
2023/05/08 09:29:21;;;;;;;;;;;;;;;17.15;93.48;102083.44;5070624;28;19947;-58
2023/05/08 09:31:49;;;;;;;;;;;;;;;17.21;93.81;102096.13;5067535;28;19912;-59
2023/05/08 09:34:22;;;;;;;;;;;;;;;17.17;93.51;102097.50;5058130;28;20012;-59
2023/05/08 09:36:48;;;;;;;;;;;;;;;17.12;93.07;102104.44;5067737;28;19912;-59
2023/05/08 09:39:20;;;;;;;;;;;;;;;17.11;93.10;102105.47;5064749;28;19920;-58
2023/05/08 09:41:57;;;;;;;;;;;;;;;17.10;93.14;102096.56;5058614;28;20393;-59
2023/05/08 09:44:22;;;;;;;;;;;;;;;17.09;92.66;102107.50;5067162;28;19916;-59
2023/05/08 09:46:49;;;;;;;;;;;;;;;17.04;92.16;102100.81;5065278;28;19924;-59
2023/05/08 09:49:16;;;;;;;;;;;;;;;17.07;92.57;102106.84;5064061;28;20443;-59
2023/05/08 09:51:50;;;;;;;;;;;;;;;17.08;92.63;102100.47;5062077;28;19999;-58
2023/05/08 09:54:18;;;;;;;;;;;;;;;17.13;92.79;102101.56;5069528;28;19923;-59
2023/05/08 09:56:43;;;;;;;;;;;;;;;17.22;92.93;102102.31;5058577;28;20003;-59
2023/05/08 09:59:25;;;;;;;;;;;;;;;17.29;92.69;102103.25;5070070;28;20011;-58
2023/05/08 10:01:51;;;;;;;;;;;;;;;17.34;92.50;102100.84;5067461;28;19943;-59
2023/05/08 10:04:16;;;;;;;;;;;;;;;17.38;92.27;102104.00;5069746;28;20341;-59
2023/05/08 10:06:41;;;;;;;;;;;;;;;17.36;91.85;102098.84;5059695;28;19963;-59
2023/05/08 10:09:07;;;;;;;;;;;;;;;17.36;91.49;102100.69;5058836;28;20302;-59
2023/05/08 10:11:32;;;;;;;;;;;;;;;17.33;91.36;102099.16;5061530;28;19925;-59
2023/05/08 10:13:58;;;;;;;;;;;;;;;17.28;91.07;102104.25;5057502;28;20788;-59
2023/05/08 10:16:26;;;;;;;;;;;;;;;17.25;91.45;102102.78;5064045;28;19927;-58
2023/05/08 10:18:55;;;;;;;;;;;;;;;17.26;91.66;102106.31;5063507;28;20046;-58
2023/05/08 10:21:22;;;;;;;;;;;;;;;17.19;91.63;102108.91;5055889;28;20011;-58
2023/05/08 10:23:48;;;;;;;;;;;;;;;17.14;91.85;102110.47;5058165;28;19920;-58
2023/05/08 10:26:15;;;;;;;;;;;;;;;17.10;91.73;102109.16;5063997;28;19927;-59
2023/05/08 10:28:43;;;;;;;;;;;;;;;17.11;92.23;102106.31;5056504;28;20000;-59
2023/05/08 10:31:10;;;;;;;;;;;;;;;17.12;92.48;102099.91;5061448;28;20404;-59
2023/05/08 10:33:39;;;;;;;;;;;;;;;17.09;92.64;102102.13;5058310;28;19924;-60
2023/05/08 10:36:05;;;;;;;;;;;;;;;17.10;92.30;102107.31;5062771;28;20008;-58
2023/05/08 10:38:31;;;;;;;;;;;;;;;17.13;92.83;102106.94;5062094;28;19924;-59
2023/05/08 10:40:58;;;;;;;;;;;;;;;17.12;92.52;102107.13;5069252;28;20378;-59
2023/05/08 10:43:24;;;;;;;;;;;;;;;17.09;92.71;102111.00;5059417;28;19978;-58
2023/05/08 10:45:50;;;;;;;;;;;;;;;17.08;92.41;102116.56;5063554;28;19920;-59
2023/05/08 10:48:24;;;;;;;;;;;;;;;17.06;92.32;102107.84;5066778;28;19916;-59
2023/05/08 10:50:52;;;;;;;;;;;;;;;17.06;92.08;102106.00;5061433;28;19927;-58
2023/05/08 10:53:23;;;;;;;;;;;;;;;17.04;92.06;102110.69;5062290;28;20054;-60
2023/05/08 10:55:49;;;;;;;;;;;;;;;17.04;92.34;102111.53;5067882;28;19924;-60
2023/05/08 10:58:29;;;;;;;;;;;;;;;17.08;92.29;102101.28;5067264;28;19916;-60
2023/05/08 11:01:05;;;;;;;;;;;;;;;17.11;92.05;102098.25;5069185;28;19924;-60
2023/05/08 11:03:30;;;;;;;;;;;;;;;17.14;91.86;102097.03;5061815;28;19920;-60
2023/05/08 11:05:56;;;;;;;;;;;;;;;17.21;92.20;102090.75;5068896;28;19913;-60
2023/05/08 11:08:23;;;;;;;;;;;;;;;17.35;92.76;102089.09;5060369;28;20391;-60
2023/05/08 11:11:01;;;;;;;;;;;;;;;17.45;92.51;102102.25;5057607;28;20282;-60
2023/05/08 11:13:36;;;;;;;;;;;;;;;17.44;91.19;102096.03;5060973;28;19916;-60
2023/05/08 11:16:01;;;;;;;;;;;;;;;17.39;90.39;102098.47;5067214;28;20503;-60
2023/05/08 11:18:27;;;;;;;;;;;;;;;17.44;90.97;102095.22;5065726;28;19916;-59
2023/05/08 11:20:56;;;;;;;;;;;;;;;17.41;90.68;102085.69;5067198;28;20363;-59
2023/05/08 11:23:22;;;;;;;;;;;;;;;17.41;90.49;102085.69;5060843;28;20452;-59
2023/05/08 11:25:57;;;;;;;;;;;;;;;17.44;90.19;102082.63;5059610;28;19912;-58
2023/05/08 11:28:22;;;;;;;;;;;;;;;17.52;90.23;102076.31;5066730;28;19920;-59
2023/05/08 11:30:51;;;;;;;;;;;;;;;17.57;90.12;102082.78;5062703;28;20297;-59
2023/05/08 11:33:17;;;;;;;;;;;;;;;17.69;90.16;102074.31;5059051;28;19917;-57
2023/05/08 11:35:45;;;;;;;;;;;;;;;17.76;89.97;102069.84;5065349;28;19923;-59
2023/05/08 11:38:18;;;;;;;;;;;;;;;17.85;89.16;102068.69;5067157;28;20431;-59
2023/05/08 11:40:44;;;;;;;;;;;;;;;18.01;89.10;102067.66;5056023;28;19921;-59
2023/05/08 11:43:40;;;;;;;;;;;;;;;18.16;88.94;102069.25;5065318;28;19928;-59
2023/05/08 11:46:16;;;;;;;;;;;;;;;18.42;87.45;102071.41;5046135;28;20348;-59
2023/05/08 11:48:41;;;;;;;;;;;;;;;18.64;86.42;102069.56;5062646;28;19920;-58
2023/05/08 11:51:06;;;;;;;;;;;;;;;18.77;85.95;102063.44;5065325;28;19912;-59
2023/05/08 11:53:32;;;;;;;;;;;;;;;18.81;84.80;102062.91;5066330;28;19916;-59
2023/05/08 11:55:58;;;;;;;;;;;;;;;18.92;84.96;102060.69;5061212;28;19920;-59
2023/05/08 11:58:23;;;;;;;;;;;;;;;19.07;84.40;102056.00;5065100;28;19920;-59
2023/05/08 12:00:48;;;;;;;;;;;;;;;19.15;83.60;102055.88;5067673;28;20057;-59
2023/05/08 12:03:14;;;;;;;;;;;;;;;19.24;82.83;102057.38;5067755;28;19920;-59
2023/05/08 12:05:40;;;;;;;;;;;;;;;19.41;81.58;102047.97;5065875;28;19992;-59
2023/05/08 12:08:05;;;;;;;;;;;;;;;19.49;80.18;102052.34;5066808;28;20019;-59
2023/05/08 12:10:30;;;;;;;;;;;;;;;19.52;79.64;102049.25;5063245;28;20504;-59
2023/05/08 12:12:56;;;;;;;;;;;;;;;19.66;79.49;102047.47;5065760;28;19923;-59
2023/05/08 12:15:21;;;;;;;;;;;;;;;19.83;77.89;102042.56;5062781;28;19917;-59
2023/05/08 12:17:46;;;;;;;;;;;;;;;20.08;78.76;102039.09;5058682;28;19974;-59
2023/05/08 12:20:15;;;;;;;;;;;;;;;20.20;75.36;102047.41;5064036;28;20296;-59
2023/05/08 12:22:41;;;;;;;;;;;;;;;20.15;73.72;102040.97;5060568;28;20429;-59
2023/05/08 12:25:07;;;;;;;;;;;;;;;20.27;73.40;102036.66;5064528;28;19924;-58
2023/05/08 12:27:33;;;;;;;;;;;;;;;20.40;72.96;102026.72;5061919;28;19920;-59
2023/05/08 12:29:58;;;;;;;;;;;;;;;20.58;72.63;102036.94;5070860;28;19958;-59
2023/05/08 12:32:23;;;;;;;;;;;;;;;20.63;70.67;102030.91;5064294;28;19916;-59